sensor_id;sensor_type;location;lat;lon;timestamp;P1;durP1;ratioP1;P2;durP2;ratioP2
22660;SDS011;11497;52.222;21.246;2024-01-06T00:01:58;36.00;;;16.98;;
22660;SDS011;11497;52.222;21.246;2024-01-06T00:04:26;35.08;;;18.23;;
22660;SDS011;11497;52.222;21.246;2024-01-06T00:06:55;38.42;;;18.27;;
22660;SDS011;11497;52.222;21.246;2024-01-06T00:09:23;37.20;;;17.38;;
22660;SDS011;11497;52.222;21.246;2024-01-06T00:11:51;32.58;;;16.95;;
22660;SDS011;11497;52.222;21.246;2024-01-06T00:14:19;34.92;;;17.52;;
22660;SDS011;11497;52.222;21.246;2024-01-06T00:16:47;29.98;;;15.50;;
22660;SDS011;11497;52.222;21.246;2024-01-06T00:19:15;32.75;;;17.58;;
22660;SDS011;11497;52.222;21.246;2024-01-06T00:21:44;29.48;;;14.40;;
22660;SDS011;11497;52.222;21.246;2024-01-06T00:24:12;30.45;;;16.10;;
22660;SDS011;11497;52.222;21.246;2024-01-06T00:26:40;33.83;;;16.42;;
22660;SDS011;11497;52.222;21.246;2024-01-06T00:29:08;30.75;;;16.30;;
22660;SDS011;11497;52.222;21.246;2024-01-06T00:31:35;31.35;;;15.63;;
22660;SDS011;11497;52.222;21.246;2024-01-06T00:34:04;32.65;;;16.98;;
22660;SDS011;11497;52.222;21.246;2024-01-06T00:36:32;31.58;;;15.43;;
22660;SDS011;11497;52.222;21.246;2024-01-06T00:39:00;32.38;;;16.08;;
22660;SDS011;11497;52.222;21.246;2024-01-06T00:41:28;32.72;;;16.23;;
22660;SDS011;11497;52.222;21.246;2024-01-06T00:43:56;29.17;;;15.05;;
22660;SDS011;11497;52.222;21.246;2024-01-06T00:46:23;26.45;;;14.15;;
22660;SDS011;11497;52.222;21.246;2024-01-06T00:48:51;26.20;;;14.15;;
22660;SDS011;11497;52.222;21.246;2024-01-06T00:51:20;27.33;;;14.02;;
22660;SDS011;11497;52.222;21.246;2024-01-06T00:53:48;28.60;;;15.25;;
22660;SDS011;11497;52.222;21.246;2024-01-06T00:56:16;26.10;;;13.98;;
22660;SDS011;11497;52.222;21.246;2024-01-06T00:58:44;28.45;;;14.02;;
22660;SDS011;11497;52.222;21.246;2024-01-06T01:01:12;28.85;;;13.75;;
22660;SDS011;11497;52.222;21.246;2024-01-06T01:03:40;25.90;;;13.15;;
22660;SDS011;11497;52.222;21.246;2024-01-06T01:06:08;27.65;;;14.50;;
22660;SDS011;11497;52.222;21.246;2024-01-06T01:08:36;31.15;;;14.60;;
22660;SDS011;11497;52.222;21.246;2024-01-06T01:11:04;24.98;;;13.15;;
22660;SDS011;11497;52.222;21.246;2024-01-06T01:13:32;27.20;;;14.38;;
22660;SDS011;11497;52.222;21.246;2024-01-06T01:16:00;26.45;;;13.73;;
22660;SDS011;11497;52.222;21.246;2024-01-06T01:18:29;26.15;;;13.98;;
22660;SDS011;11497;52.222;21.246;2024-01-06T01:20:57;26.88;;;14.07;;
22660;SDS011;11497;52.222;21.246;2024-01-06T01:23:25;29.63;;;14.35;;
22660;SDS011;11497;52.222;21.246;2024-01-06T01:25:54;27.75;;;13.00;;
22660;SDS011;11497;52.222;21.246;2024-01-06T01:28:22;23.67;;;12.45;;
22660;SDS011;11497;52.222;21.246;2024-01-06T01:30:49;26.92;;;13.25;;
22660;SDS011;11497;52.222;21.246;2024-01-06T01:33:17;23.80;;;12.63;;
22660;SDS011;11497;52.222;21.246;2024-01-06T01:35:46;26.17;;;13.30;;
22660;SDS011;11497;52.222;21.246;2024-01-06T01:38:14;25.08;;;12.90;;
22660;SDS011;11497;52.222;21.246;2024-01-06T01:40:42;26.50;;;12.48;;
22660;SDS011;11497;52.222;21.246;2024-01-06T01:43:16;22.38;;;12.45;;
22660;SDS011;11497;52.222;21.246;2024-01-06T01:45:48;24.55;;;13.30;;
22660;SDS011;11497;52.222;21.246;2024-01-06T01:48:20;24.65;;;11.93;;
22660;SDS011;11497;52.222;21.246;2024-01-06T01:50:51;23.58;;;12.95;;
22660;SDS011;11497;52.222;21.246;2024-01-06T01:53:22;25.30;;;13.30;;
22660;SDS011;11497;52.222;21.246;2024-01-06T01:55:52;24.45;;;13.27;;
22660;SDS011;11497;52.222;21.246;2024-01-06T01:58:20;24.35;;;13.30;;
22660;SDS011;11497;52.222;21.246;2024-01-06T02:00:48;22.58;;;12.70;;
22660;SDS011;11497;52.222;21.246;2024-01-06T02:03:16;25.17;;;12.95;;
22660;SDS011;11497;52.222;21.246;2024-01-06T02:05:45;22.20;;;12.57;;
22660;SDS011;11497;52.222;21.246;2024-01-06T02:08:13;24.42;;;12.77;;
22660;SDS011;11497;52.222;21.246;2024-01-06T02:10:41;24.55;;;13.35;;
22660;SDS011;11497;52.222;21.246;2024-01-06T02:13:09;23.88;;;13.27;;
22660;SDS011;11497;52.222;21.246;2024-01-06T02:15:38;23.85;;;13.85;;
22660;SDS011;11497;52.222;21.246;2024-01-06T02:18:06;24.15;;;12.48;;
22660;SDS011;11497;52.222;21.246;2024-01-06T02:20:34;23.10;;;12.48;;
22660;SDS011;11497;52.222;21.246;2024-01-06T02:23:03;22.63;;;11.88;;
22660;SDS011;11497;52.222;21.246;2024-01-06T02:25:32;22.88;;;11.82;;
22660;SDS011;11497;52.222;21.246;2024-01-06T02:28:00;21.23;;;11.40;;
22660;SDS011;11497;52.222;21.246;2024-01-06T02:30:28;20.20;;;10.75;;
22660;SDS011;11497;52.222;21.246;2024-01-06T02:32:56;18.98;;;10.93;;
22660;SDS011;11497;52.222;21.246;2024-01-06T02:35:24;19.40;;;11.07;;
22660;SDS011;11497;52.222;21.246;2024-01-06T02:37:52;22.65;;;11.40;;
22660;SDS011;11497;52.222;21.246;2024-01-06T02:40:20;17.55;;;11.13;;
22660;SDS011;11497;52.222;21.246;2024-01-06T02:42:48;22.50;;;11.10;;
22660;SDS011;11497;52.222;21.246;2024-01-06T02:45:16;18.05;;;10.40;;
22660;SDS011;11497;52.222;21.246;2024-01-06T02:47:44;19.15;;;10.48;;
22660;SDS011;11497;52.222;21.246;2024-01-06T02:50:12;20.10;;;10.55;;
22660;SDS011;11497;52.222;21.246;2024-01-06T02:52:40;20.08;;;10.23;;
22660;SDS011;11497;52.222;21.246;2024-01-06T02:55:08;17.85;;;10.65;;
22660;SDS011;11497;52.222;21.246;2024-01-06T02:57:36;16.35;;;8.98;;
22660;SDS011;11497;52.222;21.246;2024-01-06T03:00:04;19.58;;;10.63;;
22660;SDS011;11497;52.222;21.246;2024-01-06T03:02:33;20.80;;;10.80;;
22660;SDS011;11497;52.222;21.246;2024-01-06T03:05:03;21.15;;;10.93;;
22660;SDS011;11497;52.222;21.246;2024-01-06T03:07:31;19.33;;;10.88;;
22660;SDS011;11497;52.222;21.246;2024-01-06T03:09:59;17.75;;;9.65;;
22660;SDS011;11497;52.222;21.246;2024-01-06T03:12:27;18.17;;;10.65;;
22660;SDS011;11497;52.222;21.246;2024-01-06T03:14:55;19.88;;;10.90;;
22660;SDS011;11497;52.222;21.246;2024-01-06T03:17:23;18.55;;;10.52;;
22660;SDS011;11497;52.222;21.246;2024-01-06T03:19:51;17.75;;;10.55;;
22660;SDS011;11497;52.222;21.246;2024-01-06T03:22:19;19.05;;;10.20;;
22660;SDS011;11497;52.222;21.246;2024-01-06T03:24:47;18.13;;;10.88;;
22660;SDS011;11497;52.222;21.246;2024-01-06T03:27:15;22.83;;;13.05;;
22660;SDS011;11497;52.222;21.246;2024-01-06T03:29:43;19.85;;;11.02;;
22660;SDS011;11497;52.222;21.246;2024-01-06T03:32:11;17.95;;;10.32;;
22660;SDS011;11497;52.222;21.246;2024-01-06T03:34:40;18.92;;;10.70;;
22660;SDS011;11497;52.222;21.246;2024-01-06T03:37:08;22.13;;;12.40;;
22660;SDS011;11497;52.222;21.246;2024-01-06T03:39:36;23.25;;;12.27;;
22660;SDS011;11497;52.222;21.246;2024-01-06T03:42:05;21.05;;;12.10;;
22660;SDS011;11497;52.222;21.246;2024-01-06T03:44:33;22.92;;;12.80;;
22660;SDS011;11497;52.222;21.246;2024-01-06T03:47:02;21.88;;;12.93;;
22660;SDS011;11497;52.222;21.246;2024-01-06T03:49:29;22.65;;;12.85;;
22660;SDS011;11497;52.222;21.246;2024-01-06T03:51:58;22.88;;;13.57;;
22660;SDS011;11497;52.222;21.246;2024-01-06T03:54:26;24.88;;;13.55;;
22660;SDS011;11497;52.222;21.246;2024-01-06T03:56:54;26.77;;;13.98;;
22660;SDS011;11497;52.222;21.246;2024-01-06T03:59:21;23.73;;;13.60;;
22660;SDS011;11497;52.222;21.246;2024-01-06T04:01:49;23.05;;;13.98;;
22660;SDS011;11497;52.222;21.246;2024-01-06T04:04:17;23.50;;;12.98;;
22660;SDS011;11497;52.222;21.246;2024-01-06T04:06:45;25.45;;;13.40;;
22660;SDS011;11497;52.222;21.246;2024-01-06T04:09:13;25.95;;;13.88;;
22660;SDS011;11497;52.222;21.246;2024-01-06T04:11:44;22.27;;;12.63;;
22660;SDS011;11497;52.222;21.246;2024-01-06T04:14:12;23.90;;;13.75;;
22660;SDS011;11497;52.222;21.246;2024-01-06T04:16:40;25.25;;;12.45;;
22660;SDS011;11497;52.222;21.246;2024-01-06T04:19:08;23.60;;;12.85;;
22660;SDS011;11497;52.222;21.246;2024-01-06T04:21:38;24.05;;;13.55;;
22660;SDS011;11497;52.222;21.246;2024-01-06T04:24:06;22.08;;;12.48;;
22660;SDS011;11497;52.222;21.246;2024-01-06T04:26:34;22.33;;;11.85;;
22660;SDS011;11497;52.222;21.246;2024-01-06T04:29:01;19.63;;;11.10;;
22660;SDS011;11497;52.222;21.246;2024-01-06T04:31:29;19.83;;;11.25;;
22660;SDS011;11497;52.222;21.246;2024-01-06T04:33:57;21.23;;;11.68;;
22660;SDS011;11497;52.222;21.246;2024-01-06T04:36:26;20.25;;;11.38;;
22660;SDS011;11497;52.222;21.246;2024-01-06T04:38:54;20.55;;;10.45;;
22660;SDS011;11497;52.222;21.246;2024-01-06T04:41:22;19.23;;;11.18;;
22660;SDS011;11497;52.222;21.246;2024-01-06T04:43:50;16.58;;;9.82;;
22660;SDS011;11497;52.222;21.246;2024-01-06T04:46:18;17.83;;;10.50;;
22660;SDS011;11497;52.222;21.246;2024-01-06T04:48:46;19.73;;;10.30;;
22660;SDS011;11497;52.222;21.246;2024-01-06T04:51:14;18.83;;;10.80;;
22660;SDS011;11497;52.222;21.246;2024-01-06T04:53:42;19.67;;;10.25;;
22660;SDS011;11497;52.222;21.246;2024-01-06T04:56:10;21.42;;;11.07;;
22660;SDS011;11497;52.222;21.246;2024-01-06T04:58:38;18.58;;;10.88;;
22660;SDS011;11497;52.222;21.246;2024-01-06T05:01:06;19.75;;;10.18;;
22660;SDS011;11497;52.222;21.246;2024-01-06T05:03:35;15.80;;;9.77;;
22660;SDS011;11497;52.222;21.246;2024-01-06T05:06:03;19.30;;;10.70;;
22660;SDS011;11497;52.222;21.246;2024-01-06T05:08:31;17.75;;;9.77;;
22660;SDS011;11497;52.222;21.246;2024-01-06T05:10:59;19.23;;;10.52;;
22660;SDS011;11497;52.222;21.246;2024-01-06T05:13:27;17.27;;;9.95;;
22660;SDS011;11497;52.222;21.246;2024-01-06T05:15:55;17.13;;;9.93;;
22660;SDS011;11497;52.222;21.246;2024-01-06T05:18:23;16.13;;;10.45;;
22660;SDS011;11497;52.222;21.246;2024-01-06T05:20:51;18.08;;;10.38;;
22660;SDS011;11497;52.222;21.246;2024-01-06T05:23:20;20.23;;;10.38;;
22660;SDS011;11497;52.222;21.246;2024-01-06T05:25:48;18.35;;;10.48;;
22660;SDS011;11497;52.222;21.246;2024-01-06T05:28:15;21.23;;;11.20;;
22660;SDS011;11497;52.222;21.246;2024-01-06T05:30:43;18.35;;;10.68;;
22660;SDS011;11497;52.222;21.246;2024-01-06T05:33:12;19.98;;;11.18;;
22660;SDS011;11497;52.222;21.246;2024-01-06T05:35:41;17.50;;;10.52;;
22660;SDS011;11497;52.222;21.246;2024-01-06T05:38:09;19.33;;;10.18;;
22660;SDS011;11497;52.222;21.246;2024-01-06T05:40:37;19.98;;;10.90;;
22660;SDS011;11497;52.222;21.246;2024-01-06T05:43:04;18.75;;;10.18;;
22660;SDS011;11497;52.222;21.246;2024-01-06T05:45:32;18.25;;;11.00;;
22660;SDS011;11497;52.222;21.246;2024-01-06T05:48:00;19.40;;;10.98;;
22660;SDS011;11497;52.222;21.246;2024-01-06T05:50:29;20.38;;;10.55;;
22660;SDS011;11497;52.222;21.246;2024-01-06T05:52:56;21.30;;;10.93;;
22660;SDS011;11497;52.222;21.246;2024-01-06T05:55:24;18.55;;;10.68;;
22660;SDS011;11497;52.222;21.246;2024-01-06T05:57:52;22.50;;;11.40;;
22660;SDS011;11497;52.222;21.246;2024-01-06T06:00:20;19.17;;;11.05;;
22660;SDS011;11497;52.222;21.246;2024-01-06T06:02:48;20.00;;;11.07;;
22660;SDS011;11497;52.222;21.246;2024-01-06T06:05:16;19.80;;;11.20;;
22660;SDS011;11497;52.222;21.246;2024-01-06T06:07:44;18.83;;;11.82;;
22660;SDS011;11497;52.222;21.246;2024-01-06T06:10:12;17.70;;;11.05;;
22660;SDS011;11497;52.222;21.246;2024-01-06T06:12:42;21.40;;;11.85;;
22660;SDS011;11497;52.222;21.246;2024-01-06T06:15:11;21.92;;;11.63;;
22660;SDS011;11497;52.222;21.246;2024-01-06T06:17:39;19.48;;;11.48;;
22660;SDS011;11497;52.222;21.246;2024-01-06T06:20:07;19.40;;;10.98;;
22660;SDS011;11497;52.222;21.246;2024-01-06T06:22:35;24.42;;;12.98;;
22660;SDS011;11497;52.222;21.246;2024-01-06T06:25:03;21.73;;;11.70;;
22660;SDS011;11497;52.222;21.246;2024-01-06T06:27:32;20.90;;;12.02;;
22660;SDS011;11497;52.222;21.246;2024-01-06T06:30:00;21.60;;;11.88;;
22660;SDS011;11497;52.222;21.246;2024-01-06T06:32:28;26.73;;;12.65;;
22660;SDS011;11497;52.222;21.246;2024-01-06T06:34:56;23.27;;;12.57;;
22660;SDS011;11497;52.222;21.246;2024-01-06T06:37:24;24.75;;;13.65;;
22660;SDS011;11497;52.222;21.246;2024-01-06T06:39:52;25.25;;;13.18;;
22660;SDS011;11497;52.222;21.246;2024-01-06T06:42:20;21.65;;;12.90;;
22660;SDS011;11497;52.222;21.246;2024-01-06T06:44:48;21.33;;;12.20;;
22660;SDS011;11497;52.222;21.246;2024-01-06T06:47:16;24.42;;;13.90;;
22660;SDS011;11497;52.222;21.246;2024-01-06T06:49:44;24.50;;;13.48;;
22660;SDS011;11497;52.222;21.246;2024-01-06T06:52:12;24.48;;;13.32;;
22660;SDS011;11497;52.222;21.246;2024-01-06T06:54:40;25.17;;;13.30;;
22660;SDS011;11497;52.222;21.246;2024-01-06T06:57:08;24.25;;;13.30;;
22660;SDS011;11497;52.222;21.246;2024-01-06T06:59:36;25.45;;;13.23;;
22660;SDS011;11497;52.222;21.246;2024-01-06T07:02:04;23.23;;;13.73;;
22660;SDS011;11497;52.222;21.246;2024-01-06T07:04:32;25.00;;;13.60;;
22660;SDS011;11497;52.222;21.246;2024-01-06T07:07:00;27.40;;;14.13;;
22660;SDS011;11497;52.222;21.246;2024-01-06T07:09:28;24.55;;;13.80;;
22660;SDS011;11497;52.222;21.246;2024-01-06T07:11:56;26.75;;;13.68;;
22660;SDS011;11497;52.222;21.246;2024-01-06T07:14:23;26.02;;;14.13;;
22660;SDS011;11497;52.222;21.246;2024-01-06T07:16:51;26.67;;;13.98;;
22660;SDS011;11497;52.222;21.246;2024-01-06T07:19:19;37.25;;;20.55;;
22660;SDS011;11497;52.222;21.246;2024-01-06T07:21:48;33.45;;;17.70;;
22660;SDS011;11497;52.222;21.246;2024-01-06T07:24:15;27.20;;;15.60;;
22660;SDS011;11497;52.222;21.246;2024-01-06T07:26:43;26.77;;;15.68;;
22660;SDS011;11497;52.222;21.246;2024-01-06T07:29:11;30.40;;;16.75;;
22660;SDS011;11497;52.222;21.246;2024-01-06T07:31:39;26.20;;;14.95;;
22660;SDS011;11497;52.222;21.246;2024-01-06T07:34:07;29.58;;;15.77;;
22660;SDS011;11497;52.222;21.246;2024-01-06T07:36:35;24.08;;;13.63;;
22660;SDS011;11497;52.222;21.246;2024-01-06T07:39:05;27.88;;;15.52;;
22660;SDS011;11497;52.222;21.246;2024-01-06T07:41:33;23.83;;;13.32;;
22660;SDS011;11497;52.222;21.246;2024-01-06T07:44:01;25.88;;;14.80;;
22660;SDS011;11497;52.222;21.246;2024-01-06T07:46:31;28.08;;;15.73;;
22660;SDS011;11497;52.222;21.246;2024-01-06T07:48:59;31.13;;;15.55;;
22660;SDS011;11497;52.222;21.246;2024-01-06T07:51:28;27.52;;;14.23;;
22660;SDS011;11497;52.222;21.246;2024-01-06T07:53:55;25.38;;;13.10;;
22660;SDS011;11497;52.222;21.246;2024-01-06T07:56:25;28.35;;;13.77;;
22660;SDS011;11497;52.222;21.246;2024-01-06T07:58:52;26.88;;;14.93;;
22660;SDS011;11497;52.222;21.246;2024-01-06T08:01:21;23.88;;;13.27;;
22660;SDS011;11497;52.222;21.246;2024-01-06T08:03:49;25.58;;;14.50;;
22660;SDS011;11497;52.222;21.246;2024-01-06T08:06:17;25.40;;;12.88;;
22660;SDS011;11497;52.222;21.246;2024-01-06T08:08:46;22.52;;;12.57;;
22660;SDS011;11497;52.222;21.246;2024-01-06T08:11:14;25.52;;;13.00;;
22660;SDS011;11497;52.222;21.246;2024-01-06T08:13:42;21.30;;;12.95;;
22660;SDS011;11497;52.222;21.246;2024-01-06T08:16:10;23.83;;;13.35;;
22660;SDS011;11497;52.222;21.246;2024-01-06T08:18:38;24.80;;;13.77;;
22660;SDS011;11497;52.222;21.246;2024-01-06T08:21:06;24.23;;;13.68;;
22660;SDS011;11497;52.222;21.246;2024-01-06T08:23:34;26.35;;;13.50;;
22660;SDS011;11497;52.222;21.246;2024-01-06T08:26:03;20.15;;;10.82;;
22660;SDS011;11497;52.222;21.246;2024-01-06T08:28:33;22.10;;;12.85;;
22660;SDS011;11497;52.222;21.246;2024-01-06T08:31:01;25.17;;;13.60;;
22660;SDS011;11497;52.222;21.246;2024-01-06T08:33:29;22.35;;;12.40;;
22660;SDS011;11497;52.222;21.246;2024-01-06T08:35:57;23.80;;;13.20;;
22660;SDS011;11497;52.222;21.246;2024-01-06T08:38:25;20.58;;;11.95;;
22660;SDS011;11497;52.222;21.246;2024-01-06T08:40:53;26.27;;;13.18;;
22660;SDS011;11497;52.222;21.246;2024-01-06T08:43:21;18.70;;;11.10;;
22660;SDS011;11497;52.222;21.246;2024-01-06T08:45:49;20.85;;;11.20;;
22660;SDS011;11497;52.222;21.246;2024-01-06T08:48:17;21.02;;;11.10;;
22660;SDS011;11497;52.222;21.246;2024-01-06T08:50:46;24.83;;;11.38;;
22660;SDS011;11497;52.222;21.246;2024-01-06T08:53:14;22.55;;;12.25;;
22660;SDS011;11497;52.222;21.246;2024-01-06T08:55:42;20.52;;;11.45;;
22660;SDS011;11497;52.222;21.246;2024-01-06T08:58:13;19.17;;;11.80;;
22660;SDS011;11497;52.222;21.246;2024-01-06T09:00:41;20.08;;;11.75;;
22660;SDS011;11497;52.222;21.246;2024-01-06T09:03:09;20.42;;;11.48;;
22660;SDS011;11497;52.222;21.246;2024-01-06T09:05:39;19.42;;;10.50;;
22660;SDS011;11497;52.222;21.246;2024-01-06T09:08:07;19.13;;;10.57;;
22660;SDS011;11497;52.222;21.246;2024-01-06T09:10:35;18.10;;;10.98;;
22660;SDS011;11497;52.222;21.246;2024-01-06T09:13:03;18.85;;;10.73;;
22660;SDS011;11497;52.222;21.246;2024-01-06T09:15:32;20.00;;;11.02;;
22660;SDS011;11497;52.222;21.246;2024-01-06T09:18:00;14.85;;;9.30;;
22660;SDS011;11497;52.222;21.246;2024-01-06T09:20:29;16.42;;;9.45;;
22660;SDS011;11497;52.222;21.246;2024-01-06T09:22:57;17.00;;;10.40;;
22660;SDS011;11497;52.222;21.246;2024-01-06T09:25:26;21.25;;;10.75;;
22660;SDS011;11497;52.222;21.246;2024-01-06T09:27:54;16.88;;;10.07;;
22660;SDS011;11497;52.222;21.246;2024-01-06T09:30:22;14.88;;;10.02;;
22660;SDS011;11497;52.222;21.246;2024-01-06T09:32:50;15.88;;;9.65;;
22660;SDS011;11497;52.222;21.246;2024-01-06T09:35:18;17.40;;;10.38;;
22660;SDS011;11497;52.222;21.246;2024-01-06T09:37:46;17.48;;;10.00;;
22660;SDS011;11497;52.222;21.246;2024-01-06T09:40:18;19.30;;;10.43;;
22660;SDS011;11497;52.222;21.246;2024-01-06T09:42:51;15.93;;;9.77;;
22660;SDS011;11497;52.222;21.246;2024-01-06T09:45:20;17.45;;;10.55;;
22660;SDS011;11497;52.222;21.246;2024-01-06T09:47:49;16.50;;;10.35;;
22660;SDS011;11497;52.222;21.246;2024-01-06T09:50:18;17.75;;;10.60;;
22660;SDS011;11497;52.222;21.246;2024-01-06T09:52:47;14.45;;;8.73;;
22660;SDS011;11497;52.222;21.246;2024-01-06T09:55:24;16.60;;;8.85;;
22660;SDS011;11497;52.222;21.246;2024-01-06T09:57:53;15.40;;;8.65;;
22660;SDS011;11497;52.222;21.246;2024-01-06T10:00:21;13.57;;;8.65;;
22660;SDS011;11497;52.222;21.246;2024-01-06T10:02:49;14.45;;;8.60;;
22660;SDS011;11497;52.222;21.246;2024-01-06T10:05:18;15.50;;;10.05;;
22660;SDS011;11497;52.222;21.246;2024-01-06T10:07:46;14.77;;;8.68;;
22660;SDS011;11497;52.222;21.246;2024-01-06T10:10:15;17.88;;;9.80;;
22660;SDS011;11497;52.222;21.246;2024-01-06T10:12:43;21.25;;;10.45;;
22660;SDS011;11497;52.222;21.246;2024-01-06T10:15:11;22.13;;;11.35;;
22660;SDS011;11497;52.222;21.246;2024-01-06T10:17:39;20.02;;;10.20;;
22660;SDS011;11497;52.222;21.246;2024-01-06T10:20:09;30.23;;;12.65;;
22660;SDS011;11497;52.222;21.246;2024-01-06T10:22:38;26.15;;;11.80;;
22660;SDS011;11497;52.222;21.246;2024-01-06T10:25:09;24.50;;;11.88;;
22660;SDS011;11497;52.222;21.246;2024-01-06T10:27:38;33.42;;;15.45;;
22660;SDS011;11497;52.222;21.246;2024-01-06T10:30:08;21.13;;;11.30;;
22660;SDS011;11497;52.222;21.246;2024-01-06T10:32:37;20.42;;;11.32;;
22660;SDS011;11497;52.222;21.246;2024-01-06T10:35:07;20.65;;;11.32;;
22660;SDS011;11497;52.222;21.246;2024-01-06T10:37:35;19.70;;;11.77;;
22660;SDS011;11497;52.222;21.246;2024-01-06T10:40:11;14.98;;;9.05;;
22660;SDS011;11497;52.222;21.246;2024-01-06T10:42:44;15.43;;;9.15;;
22660;SDS011;11497;52.222;21.246;2024-01-06T10:45:13;12.73;;;8.20;;
22660;SDS011;11497;52.222;21.246;2024-01-06T10:47:43;16.25;;;9.95;;
22660;SDS011;11497;52.222;21.246;2024-01-06T10:50:12;17.02;;;9.07;;
22660;SDS011;11497;52.222;21.246;2024-01-06T10:52:41;21.13;;;11.65;;
22660;SDS011;11497;52.222;21.246;2024-01-06T10:55:10;15.65;;;8.95;;
22660;SDS011;11497;52.222;21.246;2024-01-06T10:57:40;16.42;;;9.05;;
22660;SDS011;11497;52.222;21.246;2024-01-06T11:00:14;16.92;;;8.75;;
22660;SDS011;11497;52.222;21.246;2024-01-06T11:02:42;18.90;;;10.48;;
22660;SDS011;11497;52.222;21.246;2024-01-06T11:05:11;14.18;;;9.27;;
22660;SDS011;11497;52.222;21.246;2024-01-06T11:07:40;13.90;;;7.93;;
22660;SDS011;11497;52.222;21.246;2024-01-06T11:10:15;15.95;;;8.93;;
22660;SDS011;11497;52.222;21.246;2024-01-06T11:12:45;15.30;;;8.52;;
22660;SDS011;11497;52.222;21.246;2024-01-06T11:15:42;16.98;;;9.02;;
22660;SDS011;11497;52.222;21.246;2024-01-06T11:18:30;17.52;;;9.30;;
22660;SDS011;11497;52.222;21.246;2024-01-06T11:26:45;17.83;;;10.23;;
22660;SDS011;11497;52.222;21.246;2024-01-06T11:29:18;19.35;;;10.57;;
22660;SDS011;11497;52.222;21.246;2024-01-06T11:34:54;16.23;;;9.48;;
22660;SDS011;11497;52.222;21.246;2024-01-06T11:37:33;18.20;;;9.45;;
22660;SDS011;11497;52.222;21.246;2024-01-06T11:42:45;18.50;;;9.95;;
22660;SDS011;11497;52.222;21.246;2024-01-06T11:45:26;18.90;;;10.00;;
22660;SDS011;11497;52.222;21.246;2024-01-06T11:48:07;18.67;;;10.07;;
22660;SDS011;11497;52.222;21.246;2024-01-06T11:50:38;18.63;;;10.15;;
22660;SDS011;11497;52.222;21.246;2024-01-06T11:53:07;19.25;;;10.20;;
22660;SDS011;11497;52.222;21.246;2024-01-06T11:55:40;17.83;;;10.07;;
22660;SDS011;11497;52.222;21.246;2024-01-06T11:58:10;16.40;;;8.90;;
22660;SDS011;11497;52.222;21.246;2024-01-06T12:00:38;14.68;;;8.52;;
22660;SDS011;11497;52.222;21.246;2024-01-06T12:03:08;15.77;;;9.93;;
22660;SDS011;11497;52.222;21.246;2024-01-06T12:05:37;14.32;;;8.38;;
22660;SDS011;11497;52.222;21.246;2024-01-06T12:08:05;15.52;;;9.30;;
22660;SDS011;11497;52.222;21.246;2024-01-06T12:10:35;15.25;;;9.63;;
22660;SDS011;11497;52.222;21.246;2024-01-06T12:13:04;15.90;;;9.63;;
22660;SDS011;11497;52.222;21.246;2024-01-06T12:15:36;15.65;;;8.30;;
22660;SDS011;11497;52.222;21.246;2024-01-06T12:18:07;18.27;;;9.30;;
22660;SDS011;11497;52.222;21.246;2024-01-06T12:20:36;16.48;;;9.30;;
22660;SDS011;11497;52.222;21.246;2024-01-06T12:23:04;19.27;;;10.18;;
22660;SDS011;11497;52.222;21.246;2024-01-06T12:25:34;24.35;;;11.85;;
22660;SDS011;11497;52.222;21.246;2024-01-06T12:28:07;25.35;;;12.40;;
22660;SDS011;11497;52.222;21.246;2024-01-06T12:30:35;23.42;;;10.68;;
22660;SDS011;11497;52.222;21.246;2024-01-06T12:33:05;22.92;;;10.50;;
22660;SDS011;11497;52.222;21.246;2024-01-06T12:35:34;16.85;;;7.95;;
22660;SDS011;11497;52.222;21.246;2024-01-06T12:38:03;22.73;;;11.32;;
22660;SDS011;11497;52.222;21.246;2024-01-06T12:40:35;14.85;;;9.13;;
22660;SDS011;11497;52.222;21.246;2024-01-06T12:43:06;20.52;;;10.07;;
22660;SDS011;11497;52.222;21.246;2024-01-06T12:45:34;26.35;;;11.40;;
22660;SDS011;11497;52.222;21.246;2024-01-06T12:48:02;20.90;;;9.90;;
22660;SDS011;11497;52.222;21.246;2024-01-06T12:50:30;30.08;;;13.02;;
22660;SDS011;11497;52.222;21.246;2024-01-06T12:52:58;34.15;;;12.77;;
22660;SDS011;11497;52.222;21.246;2024-01-06T12:55:26;20.60;;;9.68;;
22660;SDS011;11497;52.222;21.246;2024-01-06T12:57:54;20.92;;;9.23;;
22660;SDS011;11497;52.222;21.246;2024-01-06T13:00:22;22.55;;;9.90;;
22660;SDS011;11497;52.222;21.246;2024-01-06T13:02:50;21.77;;;10.13;;
22660;SDS011;11497;52.222;21.246;2024-01-06T13:05:19;31.25;;;10.45;;
22660;SDS011;11497;52.222;21.246;2024-01-06T13:07:47;18.38;;;8.57;;
22660;SDS011;11497;52.222;21.246;2024-01-06T13:10:16;29.90;;;10.95;;
22660;SDS011;11497;52.222;21.246;2024-01-06T13:12:44;18.88;;;9.30;;
22660;SDS011;11497;52.222;21.246;2024-01-06T13:15:12;15.70;;;7.68;;
22660;SDS011;11497;52.222;21.246;2024-01-06T13:17:40;14.35;;;7.95;;
22660;SDS011;11497;52.222;21.246;2024-01-06T13:20:08;16.88;;;8.55;;
22660;SDS011;11497;52.222;21.246;2024-01-06T13:22:36;15.45;;;8.35;;
22660;SDS011;11497;52.222;21.246;2024-01-06T13:25:07;14.70;;;8.70;;
22660;SDS011;11497;52.222;21.246;2024-01-06T13:27:36;15.15;;;8.27;;
22660;SDS011;11497;52.222;21.246;2024-01-06T13:30:04;16.80;;;8.55;;
22660;SDS011;11497;52.222;21.246;2024-01-06T13:32:33;15.52;;;8.10;;
22660;SDS011;11497;52.222;21.246;2024-01-06T13:35:01;15.75;;;8.20;;
22660;SDS011;11497;52.222;21.246;2024-01-06T13:37:32;14.48;;;7.88;;
22660;SDS011;11497;52.222;21.246;2024-01-06T13:40:00;14.75;;;7.30;;
22660;SDS011;11497;52.222;21.246;2024-01-06T13:42:28;15.63;;;7.63;;
22660;SDS011;11497;52.222;21.246;2024-01-06T13:44:56;10.05;;;6.22;;
22660;SDS011;11497;52.222;21.246;2024-01-06T13:47:27;12.02;;;6.47;;
22660;SDS011;11497;52.222;21.246;2024-01-06T13:49:55;13.25;;;6.82;;
22660;SDS011;11497;52.222;21.246;2024-01-06T13:52:24;13.32;;;5.63;;
22660;SDS011;11497;52.222;21.246;2024-01-06T13:54:53;13.20;;;6.38;;
22660;SDS011;11497;52.222;21.246;2024-01-06T13:57:21;11.57;;;6.00;;
22660;SDS011;11497;52.222;21.246;2024-01-06T13:59:49;13.73;;;6.43;;
22660;SDS011;11497;52.222;21.246;2024-01-06T14:02:17;12.45;;;6.43;;
22660;SDS011;11497;52.222;21.246;2024-01-06T14:04:45;14.05;;;6.90;;
22660;SDS011;11497;52.222;21.246;2024-01-06T14:07:13;13.32;;;6.25;;
22660;SDS011;11497;52.222;21.246;2024-01-06T14:09:45;13.00;;;6.10;;
22660;SDS011;11497;52.222;21.246;2024-01-06T14:12:14;16.00;;;7.82;;
22660;SDS011;11497;52.222;21.246;2024-01-06T14:14:42;12.75;;;7.18;;
22660;SDS011;11497;52.222;21.246;2024-01-06T14:17:09;15.50;;;7.40;;
22660;SDS011;11497;52.222;21.246;2024-01-06T14:19:37;13.90;;;7.07;;
22660;SDS011;11497;52.222;21.246;2024-01-06T14:22:06;13.65;;;7.30;;
22660;SDS011;11497;52.222;21.246;2024-01-06T14:24:34;15.55;;;8.27;;
22660;SDS011;11497;52.222;21.246;2024-01-06T14:27:03;15.55;;;8.00;;
22660;SDS011;11497;52.222;21.246;2024-01-06T14:29:31;14.55;;;7.18;;
22660;SDS011;11497;52.222;21.246;2024-01-06T14:31:59;15.15;;;7.18;;